sensor_id;sensor_type;location;lat;lon;timestamp;pressure;altitude;pressure_sealevel;temperature;humidity
61055;BME280;46939;48.940;8.258;2022-09-23T00:01:33;100586.19;;;13.75;55.47
61055;BME280;46939;48.940;8.258;2022-09-23T00:04:04;100584.97;;;13.71;55.09
61055;BME280;46939;48.940;8.258;2022-09-23T00:06:32;100587.00;;;13.62;55.35
61055;BME280;46939;48.940;8.258;2022-09-23T00:09:01;100595.59;;;13.64;55.32
61055;BME280;46939;48.940;8.258;2022-09-23T00:11:31;100594.97;;;13.62;55.25
61055;BME280;46939;48.940;8.258;2022-09-23T00:14:02;100580.03;;;13.61;54.94
61055;BME280;46939;48.940;8.258;2022-09-23T00:16:33;100595.72;;;13.36;55.25
61055;BME280;46939;48.940;8.258;2022-09-23T00:19:03;100594.28;;;13.33;56.02
61055;BME280;46939;48.940;8.258;2022-09-23T00:21:32;100588.78;;;13.35;55.70
61055;BME280;46939;48.940;8.258;2022-09-23T00:24:00;100594.50;;;13.32;56.04
61055;BME280;46939;48.940;8.258;2022-09-23T00:26:29;100595.72;;;13.36;56.33
61055;BME280;46939;48.940;8.258;2022-09-23T00:28:58;100591.78;;;13.18;57.16
61055;BME280;46939;48.940;8.258;2022-09-23T00:31:29;100597.38;;;13.30;56.64
61055;BME280;46939;48.940;8.258;2022-09-23T00:33:59;100591.84;;;13.32;56.56
61055;BME280;46939;48.940;8.258;2022-09-23T00:36:29;100599.63;;;13.40;56.03
61055;BME280;46939;48.940;8.258;2022-09-23T00:38:58;100590.00;;;13.39;55.89
61055;BME280;46939;48.940;8.258;2022-09-23T00:41:28;100595.13;;;13.40;55.66
61055;BME280;46939;48.940;8.258;2022-09-23T00:43:59;100590.84;;;13.39;55.91
61055;BME280;46939;48.940;8.258;2022-09-23T00:46:34;100597.78;;;13.40;55.50
61055;BME280;46939;48.940;8.258;2022-09-23T00:49:06;100581.81;;;13.27;56.09
61055;BME280;46939;48.940;8.258;2022-09-23T00:51:38;100586.09;;;13.28;55.71
61055;BME280;46939;48.940;8.258;2022-09-23T00:54:09;100583.00;;;13.25;55.29
61055;BME280;46939;48.940;8.258;2022-09-23T00:56:38;100594.28;;;13.27;55.99
61055;BME280;46939;48.940;8.258;2022-09-23T00:59:09;100588.31;;;13.25;55.56
61055;BME280;46939;48.940;8.258;2022-09-23T01:01:41;100591.34;;;13.22;55.67
61055;BME280;46939;48.940;8.258;2022-09-23T01:04:11;100588.53;;;13.23;55.33
61055;BME280;46939;48.940;8.258;2022-09-23T01:06:40;100583.81;;;13.25;55.29
61055;BME280;46939;48.940;8.258;2022-09-23T01:09:09;100585.03;;;13.23;55.34
61055;BME280;46939;48.940;8.258;2022-09-23T01:11:41;100577.69;;;13.25;54.91
61055;BME280;46939;48.940;8.258;2022-09-23T01:14:27;100575.66;;;13.27;55.11
61055;BME280;46939;48.940;8.258;2022-09-23T01:17:04;100580.16;;;13.33;55.06
61055;BME280;46939;48.940;8.258;2022-09-23T01:19:53;100574.16;;;13.17;54.64
61055;BME280;46939;48.940;8.258;2022-09-23T01:22:30;100577.63;;;13.11;55.18
61055;BME280;46939;48.940;8.258;2022-09-23T01:25:20;100561.38;;;12.93;54.66
61055;BME280;46939;48.940;8.258;2022-09-23T01:28:02;100572.66;;;13.02;54.85
61055;BME280;46939;48.940;8.258;2022-09-23T01:30:42;100571.63;;;13.03;55.27
61055;BME280;46939;48.940;8.258;2022-09-23T01:33:14;100576.75;;;12.98;55.33
61055;BME280;46939;48.940;8.258;2022-09-23T01:36:01;100569.97;;;12.88;55.44
61055;BME280;46939;48.940;8.258;2022-09-23T01:38:39;100558.91;;;12.85;55.79
61055;BME280;46939;48.940;8.258;2022-09-23T01:41:26;100570.56;;;12.90;55.64
61055;BME280;46939;48.940;8.258;2022-09-23T01:43:59;100567.53;;;12.93;55.27
61055;BME280;46939;48.940;8.258;2022-09-23T01:46:37;100567.47;;;12.80;55.31
61055;BME280;46939;48.940;8.258;2022-09-23T01:49:12;100561.56;;;12.85;55.71
61055;BME280;46939;48.940;8.258;2022-09-23T01:51:45;100569.53;;;12.85;55.74
61055;BME280;46939;48.940;8.258;2022-09-23T01:54:19;100572.78;;;12.80;55.63
61055;BME280;46939;48.940;8.258;2022-09-23T01:56:55;100562.50;;;12.70;55.23
61055;BME280;46939;48.940;8.258;2022-09-23T01:59:30;100568.47;;;12.73;55.50
61055;BME280;46939;48.940;8.258;2022-09-23T02:02:07;100567.38;;;12.67;55.17
61055;BME280;46939;48.940;8.258;2022-09-23T02:04:44;100548.13;;;12.58;55.53
61055;BME280;46939;48.940;8.258;2022-09-23T02:07:19;100562.50;;;12.70;55.13
61055;BME280;46939;48.940;8.258;2022-09-23T02:09:54;100572.53;;;12.75;54.87
61055;BME280;46939;48.940;8.258;2022-09-23T02:12:25;100565.81;;;12.73;54.80
61055;BME280;46939;48.940;8.258;2022-09-23T02:15:02;100562.28;;;12.65;55.45
61055;BME280;46939;48.940;8.258;2022-09-23T02:17:37;100563.28;;;12.64;55.01
61055;BME280;46939;48.940;8.258;2022-09-23T02:20:09;100562.88;;;12.67;55.03
61055;BME280;46939;48.940;8.258;2022-09-23T02:22:47;100559.00;;;12.63;55.07
61055;BME280;46939;48.940;8.258;2022-09-23T02:25:17;100564.50;;;12.62;54.99
61055;BME280;46939;48.940;8.258;2022-09-23T02:27:54;100554.44;;;12.51;55.29
61055;BME280;46939;48.940;8.258;2022-09-23T02:30:28;100563.66;;;12.55;55.37
61055;BME280;46939;48.940;8.258;2022-09-23T02:33:04;100553.78;;;12.49;55.42
61055;BME280;46939;48.940;8.258;2022-09-23T02:35:33;100553.78;;;12.49;55.06
61055;BME280;46939;48.940;8.258;2022-09-23T02:38:16;100546.84;;;12.48;54.84
61055;BME280;46939;48.940;8.258;2022-09-23T02:40:53;100549.44;;;12.41;54.66
61055;BME280;46939;48.940;8.258;2022-09-23T02:43:27;100551.78;;;12.51;54.74
61055;BME280;46939;48.940;8.258;2022-09-23T02:46:00;100549.72;;;12.46;54.72
61055;BME280;46939;48.940;8.258;2022-09-23T02:48:34;100534.31;;;12.35;54.98
61055;BME280;46939;48.940;8.258;2022-09-23T02:51:05;100537.19;;;12.40;54.40
61055;BME280;46939;48.940;8.258;2022-09-23T02:53:34;100527.59;;;12.39;54.32
61055;BME280;46939;48.940;8.258;2022-09-23T02:56:13;100526.19;;;12.43;54.26
61055;BME280;46939;48.940;8.258;2022-09-23T02:58:43;100523.09;;;12.39;54.14
61055;BME280;46939;48.940;8.258;2022-09-23T03:01:22;100513.88;;;12.35;54.13
61055;BME280;46939;48.940;8.258;2022-09-23T03:04:05;100526.09;;;12.30;54.29
61055;BME280;46939;48.940;8.258;2022-09-23T03:06:48;100521.63;;;12.30;54.42
61055;BME280;46939;48.940;8.258;2022-09-23T03:09:24;100521.78;;;12.29;54.48
61055;BME280;46939;48.940;8.258;2022-09-23T03:12:01;100525.81;;;12.18;54.55
61055;BME280;46939;48.940;8.258;2022-09-23T03:14:38;100528.47;;;12.18;54.91
61055;BME280;46939;48.940;8.258;2022-09-23T03:17:13;100530.06;;;12.12;55.06
61055;BME280;46939;48.940;8.258;2022-09-23T03:19:47;100530.31;;;12.17;55.06
61055;BME280;46939;48.940;8.258;2022-09-23T03:22:20;100534.13;;;12.08;55.22
61055;BME280;46939;48.940;8.258;2022-09-23T03:24:52;100532.88;;;12.04;55.02
61055;BME280;46939;48.940;8.258;2022-09-23T03:27:24;100533.53;;;12.13;55.19
61055;BME280;46939;48.940;8.258;2022-09-23T03:29:56;100533.09;;;12.09;55.26
61055;BME280;46939;48.940;8.258;2022-09-23T03:32:26;100534.38;;;12.13;54.85
61055;BME280;46939;48.940;8.258;2022-09-23T03:35:04;100534.28;;;12.00;55.19
61055;BME280;46939;48.940;8.258;2022-09-23T03:37:36;100534.00;;;11.88;55.15
61055;BME280;46939;48.940;8.258;2022-09-23T03:40:11;100528.78;;;11.80;55.29
61055;BME280;46939;48.940;8.258;2022-09-23T03:42:41;100527.91;;;11.73;55.27
61055;BME280;46939;48.940;8.258;2022-09-23T03:45:12;100525.00;;;11.68;55.42
61055;BME280;46939;48.940;8.258;2022-09-23T03:47:44;100522.53;;;11.66;55.76
61055;BME280;46939;48.940;8.258;2022-09-23T03:50:15;100526.81;;;11.67;55.50
61055;BME280;46939;48.940;8.258;2022-09-23T03:52:45;100511.84;;;11.60;55.66
61055;BME280;46939;48.940;8.258;2022-09-23T03:55:15;100514.56;;;11.66;55.67
61055;BME280;46939;48.940;8.258;2022-09-23T03:57:44;100519.25;;;11.64;55.57
61055;BME280;46939;48.940;8.258;2022-09-23T04:00:14;100520.75;;;11.73;55.55
61055;BME280;46939;48.940;8.258;2022-09-23T04:02:43;100518.09;;;11.73;55.47
61055;BME280;46939;48.940;8.258;2022-09-23T04:05:12;100519.75;;;11.74;54.89
61055;BME280;46939;48.940;8.258;2022-09-23T04:07:43;100519.00;;;11.81;54.61
61055;BME280;46939;48.940;8.258;2022-09-23T04:10:12;100516.13;;;11.82;54.63
61055;BME280;46939;48.940;8.258;2022-09-23T04:12:41;100513.69;;;11.81;54.91
61055;BME280;46939;48.940;8.258;2022-09-23T04:15:10;100517.97;;;11.82;54.87
61055;BME280;46939;48.940;8.258;2022-09-23T04:17:38;100514.81;;;11.71;55.22
61055;BME280;46939;48.940;8.258;2022-09-23T04:20:07;100511.41;;;11.78;55.02
61055;BME280;46939;48.940;8.258;2022-09-23T04:22:36;100519.00;;;11.81;54.83
61055;BME280;46939;48.940;8.258;2022-09-23T04:25:08;100526.31;;;11.79;54.94
61055;BME280;46939;48.940;8.258;2022-09-23T04:27:37;100517.91;;;11.75;55.21
61055;BME280;46939;48.940;8.258;2022-09-23T04:30:07;100526.31;;;11.79;55.06
61055;BME280;46939;48.940;8.258;2022-09-23T04:32:36;100525.25;;;11.73;55.39
61055;BME280;46939;48.940;8.258;2022-09-23T04:35:05;100521.97;;;11.71;55.32
61055;BME280;46939;48.940;8.258;2022-09-23T04:37:34;100526.44;;;11.70;55.20
61055;BME280;46939;48.940;8.258;2022-09-23T04:40:04;100520.53;;;11.68;55.60
61055;BME280;46939;48.940;8.258;2022-09-23T04:42:35;100515.16;;;11.62;55.22
61055;BME280;46939;48.940;8.258;2022-09-23T04:45:05;100529.25;;;11.62;55.35
61055;BME280;46939;48.940;8.258;2022-09-23T04:47:34;100530.25;;;11.61;55.58
61055;BME280;46939;48.940;8.258;2022-09-23T04:50:02;100530.81;;;11.57;55.65
61055;BME280;46939;48.940;8.258;2022-09-23T04:52:31;100531.38;;;11.52;55.93
61055;BME280;46939;48.940;8.258;2022-09-23T04:54:59;100533.22;;;11.52;55.54
61055;BME280;46939;48.940;8.258;2022-09-23T04:57:28;100530.41;;;11.53;55.69
61055;BME280;46939;48.940;8.258;2022-09-23T04:59:59;100521.91;;;11.43;56.17
61055;BME280;46939;48.940;8.258;2022-09-23T05:02:28;100534.81;;;11.46;56.18
61055;BME280;46939;48.940;8.258;2022-09-23T05:04:56;100527.47;;;11.48;56.23
61055;BME280;46939;48.940;8.258;2022-09-23T05:07:25;100526.66;;;11.47;56.20
61055;BME280;46939;48.940;8.258;2022-09-23T05:09:54;100512.81;;;11.52;56.08
61055;BME280;46939;48.940;8.258;2022-09-23T05:12:22;100524.75;;;11.63;55.74
61055;BME280;46939;48.940;8.258;2022-09-23T05:14:51;100528.03;;;11.65;55.54
61055;BME280;46939;48.940;8.258;2022-09-23T05:17:22;100538.84;;;11.63;55.86
61055;BME280;46939;48.940;8.258;2022-09-23T05:19:51;100535.56;;;11.61;55.63
61055;BME280;46939;48.940;8.258;2022-09-23T05:22:22;100533.59;;;11.70;55.50
61055;BME280;46939;48.940;8.258;2022-09-23T05:24:51;100534.91;;;11.81;55.32
61055;BME280;46939;48.940;8.258;2022-09-23T05:27:20;100539.91;;;11.69;55.64
61055;BME280;46939;48.940;8.258;2022-09-23T05:29:48;100541.63;;;11.77;55.95
61055;BME280;46939;48.940;8.258;2022-09-23T05:32:17;100548.75;;;11.76;56.16
61055;BME280;46939;48.940;8.258;2022-09-23T05:34:49;100536.84;;;11.72;56.35
61055;BME280;46939;48.940;8.258;2022-09-23T05:37:19;100540.59;;;11.78;56.06
61055;BME280;46939;48.940;8.258;2022-09-23T05:39:48;100548.94;;;11.74;56.51
61055;BME280;46939;48.940;8.258;2022-09-23T05:42:16;100538.38;;;11.81;56.59
61055;BME280;46939;48.940;8.258;2022-09-23T05:44:45;100542.94;;;11.87;56.42
61055;BME280;46939;48.940;8.258;2022-09-23T05:47:14;100546.25;;;11.89;56.73
61055;BME280;46939;48.940;8.258;2022-09-23T05:49:42;100549.56;;;11.98;56.45
61055;BME280;46939;48.940;8.258;2022-09-23T05:52:13;100545.72;;;12.01;56.57
61055;BME280;46939;48.940;8.258;2022-09-23T05:54:42;100548.59;;;12.06;56.55
61055;BME280;46939;48.940;8.258;2022-09-23T05:57:11;100548.06;;;12.17;56.63
61055;BME280;46939;48.940;8.258;2022-09-23T05:59:39;100552.81;;;12.21;56.70
61055;BME280;46939;48.940;8.258;2022-09-23T06:02:12;100550.41;;;12.27;56.60
61055;BME280;46939;48.940;8.258;2022-09-23T06:04:40;100554.09;;;12.32;56.73
61055;BME280;46939;48.940;8.258;2022-09-23T06:07:09;100545.53;;;12.37;56.93
61055;BME280;46939;48.940;8.258;2022-09-23T06:09:41;100543.56;;;12.45;56.91
61055;BME280;46939;48.940;8.258;2022-09-23T06:12:10;100544.84;;;12.56;57.11
61055;BME280;46939;48.940;8.258;2022-09-23T06:14:38;100541.84;;;12.66;56.89
61055;BME280;46939;48.940;8.258;2022-09-23T06:17:07;100546.34;;;12.72;56.96
61055;BME280;46939;48.940;8.258;2022-09-23T06:19:35;100537.22;;;12.81;56.91
61055;BME280;46939;48.940;8.258;2022-09-23T06:22:04;100541.13;;;12.92;56.94
61055;BME280;46939;48.940;8.258;2022-09-23T06:24:32;100541.78;;;13.01;56.98
61055;BME280;46939;48.940;8.258;2022-09-23T06:27:04;100543.88;;;13.12;56.96
61055;BME280;46939;48.940;8.258;2022-09-23T06:29:32;100540.44;;;13.25;56.83
61055;BME280;46939;48.940;8.258;2022-09-23T06:32:01;100541.69;;;13.35;56.62
61055;BME280;46939;48.940;8.258;2022-09-23T06:34:30;100535.16;;;13.44;56.08
61055;BME280;46939;48.940;8.258;2022-09-23T06:36:58;100536.00;;;13.52;56.34
61055;BME280;46939;48.940;8.258;2022-09-23T06:39:27;100536.41;;;13.55;56.91
61055;BME280;46939;48.940;8.258;2022-09-23T06:41:55;100536.03;;;13.65;56.99
61055;BME280;46939;48.940;8.258;2022-09-23T06:44:28;100543.19;;;13.78;56.88
61055;BME280;46939;48.940;8.258;2022-09-23T06:46:57;100530.88;;;13.83;56.83
61055;BME280;46939;48.940;8.258;2022-09-23T06:49:25;100532.13;;;13.94;56.62
61055;BME280;46939;48.940;8.258;2022-09-23T06:51:54;100541.56;;;14.03;56.38
61055;BME280;46939;48.940;8.258;2022-09-23T06:54:22;100536.63;;;14.07;56.71
61055;BME280;46939;48.940;8.258;2022-09-23T06:56:52;100544.38;;;14.22;56.53
61055;BME280;46939;48.940;8.258;2022-09-23T06:59:21;100543.97;;;14.31;55.95
61055;BME280;46939;48.940;8.258;2022-09-23T07:01:52;100539.41;;;14.45;55.87
61055;BME280;46939;48.940;8.258;2022-09-23T07:04:21;100544.53;;;14.60;55.38
61055;BME280;46939;48.940;8.258;2022-09-23T07:06:49;100546.59;;;14.64;55.76
61055;BME280;46939;48.940;8.258;2022-09-23T07:09:20;100544.28;;;14.68;55.58
61055;BME280;46939;48.940;8.258;2022-09-23T07:11:48;100549.41;;;14.76;55.84
61055;BME280;46939;48.940;8.258;2022-09-23T07:14:17;100548.78;;;14.87;55.42
61055;BME280;46939;48.940;8.258;2022-09-23T07:16:47;100547.25;;;14.98;55.51
61055;BME280;46939;48.940;8.258;2022-09-23T07:19:18;100549.69;;;15.06;54.94
61055;BME280;46939;48.940;8.258;2022-09-23T07:21:47;100547.09;;;14.93;54.09
61055;BME280;46939;48.940;8.258;2022-09-23T07:24:15;100552.16;;;15.08;53.50
61055;BME280;46939;48.940;8.258;2022-09-23T07:26:44;100551.09;;;15.16;54.32
61055;BME280;46939;48.940;8.258;2022-09-23T07:29:13;100551.81;;;15.29;53.60
61055;BME280;46939;48.940;8.258;2022-09-23T07:31:42;100556.72;;;15.39;52.92
61055;BME280;46939;48.940;8.258;2022-09-23T07:34:10;100555.63;;;15.47;53.49
61055;BME280;46939;48.940;8.258;2022-09-23T07:36:42;100549.97;;;15.68;53.02
61055;BME280;46939;48.940;8.258;2022-09-23T07:39:11;100564.97;;;15.62;51.84
61055;BME280;46939;48.940;8.258;2022-09-23T07:41:40;100564.38;;;15.60;52.38
61055;BME280;46939;48.940;8.258;2022-09-23T07:44:09;100572.56;;;15.72;52.40
61055;BME280;46939;48.940;8.258;2022-09-23T07:46:38;100569.53;;;15.87;52.20
61055;BME280;46939;48.940;8.258;2022-09-23T07:49:09;100568.34;;;16.08;52.09
61055;BME280;46939;48.940;8.258;2022-09-23T07:51:39;100566.53;;;16.27;51.99
61055;BME280;46939;48.940;8.258;2022-09-23T07:54:14;100565.88;;;16.31;51.38
61055;BME280;46939;48.940;8.258;2022-09-23T07:56:44;100570.06;;;16.46;51.68
61055;BME280;46939;48.940;8.258;2022-09-23T07:59:15;100572.66;;;16.52;51.42
61055;BME280;46939;48.940;8.258;2022-09-23T08:01:46;100574.91;;;16.74;51.29
61055;BME280;46939;48.940;8.258;2022-09-23T08:04:16;100572.06;;;16.87;51.62
61055;BME280;46939;48.940;8.258;2022-09-23T08:06:48;100574.69;;;16.94;51.26
61055;BME280;46939;48.940;8.258;2022-09-23T08:09:21;100579.41;;;17.10;50.73
61055;BME280;46939;48.940;8.258;2022-09-23T08:11:50;100577.25;;;17.19;50.21
61055;BME280;46939;48.940;8.258;2022-09-23T08:14:19;100570.38;;;17.41;50.10
61055;BME280;46939;48.940;8.258;2022-09-23T08:16:48;100578.56;;;17.58;49.36
61055;BME280;46939;48.940;8.258;2022-09-23T08:19:17;100569.78;;;17.81;48.76
61055;BME280;46939;48.940;8.258;2022-09-23T08:21:46;100580.78;;;18.03;47.86
61055;BME280;46939;48.940;8.258;2022-09-23T08:24:20;100579.03;;;18.32;48.16
61055;BME280;46939;48.940;8.258;2022-09-23T08:26:50;100573.78;;;18.49;47.83
61055;BME280;46939;48.940;8.258;2022-09-23T08:29:20;100574.00;;;18.71;47.52
61055;BME280;46939;48.940;8.258;2022-09-23T08:31:49;100575.84;;;18.82;46.35
61055;BME280;46939;48.940;8.258;2022-09-23T08:34:20;100572.66;;;19.25;45.87
61055;BME280;46939;48.940;8.258;2022-09-23T08:36:51;100566.75;;;19.40;45.02
61055;BME280;46939;48.940;8.258;2022-09-23T08:39:23;100579.06;;;19.65;44.63
61055;BME280;46939;48.940;8.258;2022-09-23T08:42:02;100572.81;;;19.93;44.26
61055;BME280;46939;48.940;8.258;2022-09-23T08:44:42;100563.50;;;20.17;43.37
61055;BME280;46939;48.940;8.258;2022-09-23T08:47:17;100568.94;;;20.39;44.15
61055;BME280;46939;48.940;8.258;2022-09-23T08:49:55;100564.63;;;20.21;42.80
61055;BME280;46939;48.940;8.258;2022-09-23T08:52:32;100553.03;;;20.77;42.39
61055;BME280;46939;48.940;8.258;2022-09-23T08:55:08;100565.47;;;21.05;41.63
61055;BME280;46939;48.940;8.258;2022-09-23T08:57:44;100560.75;;;21.39;40.39
61055;BME280;46939;48.940;8.258;2022-09-23T09:00:19;100559.25;;;21.80;40.14
61055;BME280;46939;48.940;8.258;2022-09-23T09:02:49;100558.31;;;21.64;39.63
61055;BME280;46939;48.940;8.258;2022-09-23T09:05:23;100559.56;;;21.89;39.86
61055;BME280;46939;48.940;8.258;2022-09-23T09:07:56;100561.47;;;22.26;39.37
61055;BME280;46939;48.940;8.258;2022-09-23T09:10:32;100564.16;;;21.88;37.98
61055;BME280;46939;48.940;8.258;2022-09-23T09:13:10;100554.78;;;22.33;38.54
61055;BME280;46939;48.940;8.258;2022-09-23T09:15:51;100554.31;;;22.47;37.21
61055;BME280;46939;48.940;8.258;2022-09-23T09:18:32;100557.19;;;21.98;38.46
61055;BME280;46939;48.940;8.258;2022-09-23T09:21:07;100553.66;;;21.60;39.04
61055;BME280;46939;48.940;8.258;2022-09-23T09:23:43;100553.91;;;21.58;39.00
61055;BME280;46939;48.940;8.258;2022-09-23T09:26:20;100559.25;;;21.80;38.76
61055;BME280;46939;48.940;8.258;2022-09-23T09:28:52;100545.84;;;21.09;39.08
61055;BME280;46939;48.940;8.258;2022-09-23T09:31:29;100547.41;;;21.27;39.63
61055;BME280;46939;48.940;8.258;2022-09-23T09:34:04;100538.06;;;21.99;38.97
61055;BME280;46939;48.940;8.258;2022-09-23T09:36:37;100527.63;;;22.55;38.66
61055;BME280;46939;48.940;8.258;2022-09-23T09:39:09;100530.66;;;22.74;37.02
61055;BME280;46939;48.940;8.258;2022-09-23T09:41:45;100531.31;;;22.34;37.13
61055;BME280;46939;48.940;8.258;2022-09-23T09:44:21;100531.88;;;22.99;37.35
61055;BME280;46939;48.940;8.258;2022-09-23T09:47:06;100520.19;;;22.88;37.51
61055;BME280;46939;48.940;8.258;2022-09-23T09:49:41;100511.91;;;23.35;37.21
61055;BME280;46939;48.940;8.258;2022-09-23T09:52:18;100514.63;;;23.86;36.39
61055;BME280;46939;48.940;8.258;2022-09-23T09:54:49;100510.53;;;24.20;35.11
61055;BME280;46939;48.940;8.258;2022-09-23T09:57:28;100506.47;;;24.17;33.94
61055;BME280;46939;48.940;8.258;2022-09-23T10:00:16;100504.38;;;23.99;34.39
61055;BME280;46939;48.940;8.258;2022-09-23T10:02:45;100504.31;;;24.19;34.97
61055;BME280;46939;48.940;8.258;2022-09-23T10:05:24;100513.31;;;23.69;33.92
61055;BME280;46939;48.940;8.258;2022-09-23T10:07:54;100499.22;;;23.92;34.61
61055;BME280;46939;48.940;8.258;2022-09-23T10:10:24;100504.03;;;24.16;33.79
61055;BME280;46939;48.940;8.258;2022-09-23T10:12:55;100499.41;;;24.21;34.75
61055;BME280;46939;48.940;8.258;2022-09-23T10:15:29;100502.19;;;23.60;34.39
61055;BME280;46939;48.940;8.258;2022-09-23T10:17:59;100499.22;;;23.82;34.95
61055;BME280;46939;48.940;8.258;2022-09-23T10:20:33;100494.84;;;24.22;34.80
61055;BME280;46939;48.940;8.258;2022-09-23T10:23:07;100490.59;;;24.75;33.81
61055;BME280;46939;48.940;8.258;2022-09-23T10:25:41;100483.13;;;25.41;33.60
61055;BME280;46939;48.940;8.258;2022-09-23T10:28:43;100486.78;;;25.21;32.34
61055;BME280;46939;48.940;8.258;2022-09-23T10:31:15;100472.72;;;25.53;32.15
61055;BME280;46939;48.940;8.258;2022-09-23T10:33:51;100473.59;;;26.01;32.20
61055;BME280;46939;48.940;8.258;2022-09-23T10:36:20;100452.63;;;26.55;31.36
61055;BME280;46939;48.940;8.258;2022-09-23T10:38:54;100459.75;;;26.27;31.18
61055;BME280;46939;48.940;8.258;2022-09-23T10:41:51;100448.69;;;26.42;30.54
61055;BME280;46939;48.940;8.258;2022-09-23T10:44:50;100453.97;;;26.76;29.67
61055;BME280;46939;48.940;8.258;2022-09-23T10:47:57;100449.19;;;26.49;29.09
61055;BME280;46939;48.940;8.258;2022-09-23T10:50:36;100441.25;;;26.53;29.64
61055;BME280;46939;48.940;8.258;2022-09-23T10:53:14;100454.34;;;26.03;29.50
61055;BME280;46939;48.940;8.258;2022-09-23T10:56:09;100456.31;;;25.63;30.06
61055;BME280;46939;48.940;8.258;2022-09-23T10:59:01;100453.31;;;25.36;30.66
61055;BME280;46939;48.940;8.258;2022-09-23T11:01:44;100452.56;;;25.30;31.12
61055;BME280;46939;48.940;8.258;2022-09-23T11:04:29;100450.28;;;25.42;31.08
61055;BME280;46939;48.940;8.258;2022-09-23T11:07:11;100447.66;;;25.32;31.15
61055;BME280;46939;48.940;8.258;2022-09-23T11:10:11;100447.38;;;26.16;30.16
61055;BME280;46939;48.940;8.258;2022-09-23T11:12:50;100439.13;;;26.26;30.12
61055;BME280;46939;48.940;8.258;2022-09-23T11:15:31;100441.66;;;26.98;30.19
61055;BME280;46939;48.940;8.258;2022-09-23T11:18:33;100437.66;;;27.14;29.60
61055;BME280;46939;48.940;8.258;2022-09-23T11:21:22;100440.16;;;27.11;29.42
61055;BME280;46939;48.940;8.258;2022-09-23T11:24:04;100434.72;;;27.11;29.54
61055;BME280;46939;48.940;8.258;2022-09-23T11:26:42;100428.28;;;27.20;29.28
61055;BME280;46939;48.940;8.258;2022-09-23T11:29:41;100422.38;;;26.81;29.56
61055;BME280;46939;48.940;8.258;2022-09-23T11:32:29;100421.41;;;27.42;29.49
61055;BME280;46939;48.940;8.258;2022-09-23T11:35:16;100415.59;;;27.62;28.14
61055;BME280;46939;48.940;8.258;2022-09-23T11:37:50;100422.47;;;27.73;28.51
61055;BME280;46939;48.940;8.258;2022-09-23T11:40:23;100419.13;;;27.49;28.07
61055;BME280;46939;48.940;8.258;2022-09-23T11:42:58;100398.09;;;27.96;28.89
61055;BME280;46939;48.940;8.258;2022-09-23T11:45:34;100410.53;;;27.42;28.60
61055;BME280;46939;48.940;8.258;2022-09-23T11:48:08;100405.25;;;27.92;28.54
61055;BME280;46939;48.940;8.258;2022-09-23T11:50:45;100405.03;;;28.30;27.92
61055;BME280;46939;48.940;8.258;2022-09-23T11:53:22;100393.06;;;28.03;28.51
61055;BME280;46939;48.940;8.258;2022-09-23T11:56:01;100394.63;;;28.32;27.24
61055;BME280;46939;48.940;8.258;2022-09-23T11:58:38;100395.75;;;28.31;27.55
61055;BME280;46939;48.940;8.258;2022-09-23T12:01:13;100387.94;;;28.52;28.42
61055;BME280;46939;48.940;8.258;2022-09-23T12:03:50;100387.88;;;28.43;27.67
61055;BME280;46939;48.940;8.258;2022-09-23T12:06:28;100382.13;;;28.31;27.73
61055;BME280;46939;48.940;8.258;2022-09-23T12:09:03;100380.72;;;28.69;27.19
61055;BME280;46939;48.940;8.258;2022-09-23T12:11:41;100375.84;;;28.44;27.28
61055;BME280;46939;48.940;8.258;2022-09-23T12:14:17;100376.41;;;28.68;27.35
61055;BME280;46939;48.940;8.258;2022-09-23T12:17:00;100369.56;;;28.07;25.79
61055;BME280;46939;48.940;8.258;2022-09-23T12:19:45;100370.91;;;28.46;26.44
61055;BME280;46939;48.940;8.258;2022-09-23T12:22:36;100370.94;;;27.49;25.93
61055;BME280;46939;48.940;8.258;2022-09-23T12:25:26;100367.78;;;27.29;26.41
61055;BME280;46939;48.940;8.258;2022-09-23T12:28:02;100375.78;;;27.06;26.67
61055;BME280;46939;48.940;8.258;2022-09-23T12:30:33;100362.66;;;27.27;27.30
61055;BME280;46939;48.940;8.258;2022-09-23T12:33:08;100365.47;;;27.36;27.38
61055;BME280;46939;48.940;8.258;2022-09-23T12:35:40;100363.34;;;27.79;27.22
61055;BME280;46939;48.940;8.258;2022-09-23T12:38:19;100359.63;;;28.25;26.51
61055;BME280;46939;48.940;8.258;2022-09-23T12:40:53;100362.34;;;28.25;26.83
61055;BME280;46939;48.940;8.258;2022-09-23T12:43:28;100362.00;;;27.77;27.53
61055;BME280;46939;48.940;8.258;2022-09-23T12:46:16;100358.16;;;27.64;27.64
61055;BME280;46939;48.940;8.258;2022-09-23T12:48:58;100360.47;;;27.10;27.78
61055;BME280;46939;48.940;8.258;2022-09-23T12:51:28;100351.00;;;27.68;28.05
61055;BME280;46939;48.940;8.258;2022-09-23T12:54:19;100358.75;;;27.47;27.12
61055;BME280;46939;48.940;8.258;2022-09-23T12:57:04;100357.88;;;27.93;27.35
61055;BME280;46939;48.940;8.258;2022-09-23T12:59:54;100345.59;;;28.45;26.92
61055;BME280;46939;48.940;8.258;2022-09-23T13:02:29;100342.44;;;27.88;26.27
61055;BME280;46939;48.940;8.258;2022-09-23T13:05:08;100345.44;;;28.01;26.62
61055;BME280;46939;48.940;8.258;2022-09-23T13:07:57;100349.22;;;27.77;26.54
61055;BME280;46939;48.940;8.258;2022-09-23T13:10:32;100343.53;;;27.73;26.51
61055;BME280;46939;48.940;8.258;2022-09-23T13:13:05;100342.75;;;28.51;26.68
61055;BME280;46939;48.940;8.258;2022-09-23T13:15:35;100349.13;;;28.91;25.81
61055;BME280;46939;48.940;8.258;2022-09-23T13:24:35;100339.69;;;29.19;25.38
61055;BME280;46939;48.940;8.258;2022-09-23T13:27:21;100336.78;;;28.93;25.59
61055;BME280;46939;48.940;8.258;2022-09-23T13:29:55;100333.00;;;28.58;27.21
61055;BME280;46939;48.940;8.258;2022-09-23T13:32:29;100322.22;;;28.17;27.11